sensor_id;sensor_type;location;lat;lon;timestamp;P1;durP1;ratioP1;P2;durP2;ratioP2
60233;SDS011;49514;43.538;-5.708;2023-05-17T01:48:38;4.80;;;0.70;;
60233;SDS011;49514;43.538;-5.708;2023-05-17T01:51:16;3.22;;;0.85;;
60233;SDS011;49514;43.538;-5.708;2023-05-17T01:53:46;3.88;;;0.80;;
60233;SDS011;49514;43.538;-5.708;2023-05-17T01:56:25;4.47;;;0.80;;
60233;SDS011;49514;43.538;-5.708;2023-05-17T01:58:53;4.57;;;1.05;;
60233;SDS011;49514;43.538;-5.708;2023-05-17T02:01:24;3.72;;;0.90;;
60233;SDS011;49514;43.538;-5.708;2023-05-17T02:03:53;3.70;;;0.98;;
60233;SDS011;49514;43.538;-5.708;2023-05-17T02:06:20;3.97;;;0.82;;
60233;SDS011;49514;43.538;-5.708;2023-05-17T02:08:46;2.13;;;1.17;;
60233;SDS011;49514;43.538;-5.708;2023-05-17T02:11:13;7.40;;;1.42;;
60233;SDS011;49514;43.538;-5.708;2023-05-17T02:13:39;5.55;;;2.40;;
60233;SDS011;49514;43.538;-5.708;2023-05-17T02:16:07;12.60;;;2.95;;
60233;SDS011;49514;43.538;-5.708;2023-05-17T02:18:33;9.10;;;2.90;;
60233;SDS011;49514;43.538;-5.708;2023-05-17T02:21:02;9.38;;;3.50;;
60233;SDS011;49514;43.538;-5.708;2023-05-17T02:23:29;12.48;;;3.03;;
60233;SDS011;49514;43.538;-5.708;2023-05-17T02:25:56;11.07;;;2.65;;
60233;SDS011;49514;43.538;-5.708;2023-05-17T02:28:22;12.77;;;3.17;;
60233;SDS011;49514;43.538;-5.708;2023-05-17T02:30:49;10.07;;;3.33;;
60233;SDS011;49514;43.538;-5.708;2023-05-17T02:33:18;11.57;;;3.53;;
60233;SDS011;49514;43.538;-5.708;2023-05-17T02:35:45;8.55;;;3.28;;
60233;SDS011;49514;43.538;-5.708;2023-05-17T02:38:11;13.23;;;3.47;;
60233;SDS011;49514;43.538;-5.708;2023-05-17T02:40:40;8.20;;;3.25;;
60233;SDS011;49514;43.538;-5.708;2023-05-17T02:43:07;12.85;;;4.13;;
60233;SDS011;49514;43.538;-5.708;2023-05-17T02:45:35;14.85;;;4.05;;
60233;SDS011;49514;43.538;-5.708;2023-05-17T02:48:02;11.30;;;2.78;;
60233;SDS011;49514;43.538;-5.708;2023-05-17T02:50:29;6.60;;;2.30;;
60233;SDS011;49514;43.538;-5.708;2023-05-17T02:52:56;11.07;;;2.67;;
60233;SDS011;49514;43.538;-5.708;2023-05-17T02:55:23;3.05;;;1.70;;
60233;SDS011;49514;43.538;-5.708;2023-05-17T02:57:49;7.78;;;2.10;;
60233;SDS011;49514;43.538;-5.708;2023-05-17T03:00:16;12.55;;;2.85;;
60233;SDS011;49514;43.538;-5.708;2023-05-17T03:02:43;21.55;;;3.85;;
60233;SDS011;49514;43.538;-5.708;2023-05-17T03:05:10;18.13;;;3.55;;
60233;SDS011;49514;43.538;-5.708;2023-05-17T03:07:41;26.25;;;3.88;;
60233;SDS011;49514;43.538;-5.708;2023-05-17T03:10:08;21.30;;;4.03;;
60233;SDS011;49514;43.538;-5.708;2023-05-17T03:12:39;34.70;;;4.50;;
60233;SDS011;49514;43.538;-5.708;2023-05-17T03:15:07;25.23;;;4.18;;
60233;SDS011;49514;43.538;-5.708;2023-05-17T03:17:34;28.33;;;5.00;;
60233;SDS011;49514;43.538;-5.708;2023-05-17T03:20:02;34.47;;;4.45;;
60233;SDS011;49514;43.538;-5.708;2023-05-17T03:22:30;19.35;;;3.90;;
60233;SDS011;49514;43.538;-5.708;2023-05-17T03:24:58;17.83;;;3.60;;
60233;SDS011;49514;43.538;-5.708;2023-05-17T03:27:25;10.80;;;2.40;;
60233;SDS011;49514;43.538;-5.708;2023-05-17T03:29:52;11.35;;;2.60;;
60233;SDS011;49514;43.538;-5.708;2023-05-17T03:32:21;5.57;;;1.90;;
60233;SDS011;49514;43.538;-5.708;2023-05-17T03:34:48;9.40;;;2.30;;
60233;SDS011;49514;43.538;-5.708;2023-05-17T03:37:15;12.75;;;2.17;;
60233;SDS011;49514;43.538;-5.708;2023-05-17T03:39:41;13.88;;;3.13;;
60233;SDS011;49514;43.538;-5.708;2023-05-17T03:42:08;18.52;;;3.63;;
60233;SDS011;49514;43.538;-5.708;2023-05-17T03:44:35;22.77;;;3.92;;
60233;SDS011;49514;43.538;-5.708;2023-05-17T03:47:02;15.32;;;3.10;;
60233;SDS011;49514;43.538;-5.708;2023-05-17T03:49:29;21.80;;;3.45;;
60233;SDS011;49514;43.538;-5.708;2023-05-17T03:51:56;21.73;;;3.95;;
60233;SDS011;49514;43.538;-5.708;2023-05-17T03:54:22;16.40;;;3.22;;
60233;SDS011;49514;43.538;-5.708;2023-05-17T03:56:49;19.83;;;3.10;;
60233;SDS011;49514;43.538;-5.708;2023-05-17T03:59:17;11.35;;;2.72;;
60233;SDS011;49514;43.538;-5.708;2023-05-17T04:01:44;20.27;;;3.13;;
60233;SDS011;49514;43.538;-5.708;2023-05-17T04:04:12;11.77;;;2.83;;
60233;SDS011;49514;43.538;-5.708;2023-05-17T04:06:40;16.48;;;3.10;;
60233;SDS011;49514;43.538;-5.708;2023-05-17T04:09:06;21.42;;;2.72;;
60233;SDS011;49514;43.538;-5.708;2023-05-17T04:11:35;6.13;;;2.00;;
60233;SDS011;49514;43.538;-5.708;2023-05-17T04:14:03;8.25;;;2.53;;
60233;SDS011;49514;43.538;-5.708;2023-05-17T04:16:30;16.40;;;2.38;;
60233;SDS011;49514;43.538;-5.708;2023-05-17T04:18:58;10.43;;;2.47;;
60233;SDS011;49514;43.538;-5.708;2023-05-17T04:21:26;9.25;;;2.67;;
60233;SDS011;49514;43.538;-5.708;2023-05-17T04:23:54;11.27;;;2.60;;
60233;SDS011;49514;43.538;-5.708;2023-05-17T04:26:21;9.95;;;2.58;;
60233;SDS011;49514;43.538;-5.708;2023-05-17T04:28:48;11.93;;;2.85;;
60233;SDS011;49514;43.538;-5.708;2023-05-17T04:31:15;15.43;;;2.88;;
60233;SDS011;49514;43.538;-5.708;2023-05-17T04:33:43;17.38;;;3.00;;
60233;SDS011;49514;43.538;-5.708;2023-05-17T04:36:10;19.38;;;3.08;;
60233;SDS011;49514;43.538;-5.708;2023-05-17T04:38:38;12.95;;;2.83;;
60233;SDS011;49514;43.538;-5.708;2023-05-17T04:41:07;18.75;;;2.72;;
60233;SDS011;49514;43.538;-5.708;2023-05-17T04:43:36;27.00;;;3.55;;
60233;SDS011;49514;43.538;-5.708;2023-05-17T04:46:07;26.63;;;3.70;;
60233;SDS011;49514;43.538;-5.708;2023-05-17T04:48:34;19.13;;;3.50;;
60233;SDS011;49514;43.538;-5.708;2023-05-17T04:51:01;20.38;;;3.40;;
60233;SDS011;49514;43.538;-5.708;2023-05-17T04:53:32;19.10;;;3.78;;
60233;SDS011;49514;43.538;-5.708;2023-05-17T04:56:03;17.35;;;2.95;;
60233;SDS011;49514;43.538;-5.708;2023-05-17T04:58:30;10.27;;;2.13;;
60233;SDS011;49514;43.538;-5.708;2023-05-17T05:00:58;12.25;;;1.83;;
60233;SDS011;49514;43.538;-5.708;2023-05-17T05:03:25;13.60;;;1.73;;
60233;SDS011;49514;43.538;-5.708;2023-05-17T05:05:53;17.77;;;2.47;;
60233;SDS011;49514;43.538;-5.708;2023-05-17T05:08:20;12.18;;;1.90;;
60233;SDS011;49514;43.538;-5.708;2023-05-17T05:10:46;19.25;;;2.47;;
60233;SDS011;49514;43.538;-5.708;2023-05-17T05:13:15;14.10;;;2.95;;
60233;SDS011;49514;43.538;-5.708;2023-05-17T05:15:42;14.70;;;2.90;;
60233;SDS011;49514;43.538;-5.708;2023-05-17T05:18:09;16.77;;;2.85;;
60233;SDS011;49514;43.538;-5.708;2023-05-17T05:20:36;15.23;;;2.75;;
60233;SDS011;49514;43.538;-5.708;2023-05-17T05:23:04;12.80;;;2.92;;
60233;SDS011;49514;43.538;-5.708;2023-05-17T05:25:31;14.55;;;2.50;;
60233;SDS011;49514;43.538;-5.708;2023-05-17T05:27:59;16.63;;;2.83;;
60233;SDS011;49514;43.538;-5.708;2023-05-17T05:30:27;13.30;;;3.33;;
60233;SDS011;49514;43.538;-5.708;2023-05-17T05:32:54;12.45;;;2.92;;
60233;SDS011;49514;43.538;-5.708;2023-05-17T05:35:21;20.17;;;2.95;;
60233;SDS011;49514;43.538;-5.708;2023-05-17T05:37:55;15.20;;;3.03;;
60233;SDS011;49514;43.538;-5.708;2023-05-17T05:40:23;28.48;;;4.90;;
60233;SDS011;49514;43.538;-5.708;2023-05-17T05:42:50;21.85;;;5.60;;
60233;SDS011;49514;43.538;-5.708;2023-05-17T05:45:17;22.02;;;4.97;;
60233;SDS011;49514;43.538;-5.708;2023-05-17T05:47:46;40.70;;;10.48;;
60233;SDS011;49514;43.538;-5.708;2023-05-17T05:50:13;54.45;;;14.02;;
60233;SDS011;49514;43.538;-5.708;2023-05-17T05:52:42;26.95;;;7.75;;
60233;SDS011;49514;43.538;-5.708;2023-05-17T05:55:09;26.60;;;5.75;;
60233;SDS011;49514;43.538;-5.708;2023-05-17T05:57:36;21.65;;;4.93;;
60233;SDS011;49514;43.538;-5.708;2023-05-17T06:00:03;21.13;;;4.30;;
60233;SDS011;49514;43.538;-5.708;2023-05-17T06:02:39;16.55;;;4.07;;
60233;SDS011;49514;43.538;-5.708;2023-05-17T06:05:06;14.27;;;4.05;;
60233;SDS011;49514;43.538;-5.708;2023-05-17T06:07:33;15.50;;;3.88;;
60233;SDS011;49514;43.538;-5.708;2023-05-17T06:09:59;23.02;;;4.53;;
60233;SDS011;49514;43.538;-5.708;2023-05-17T06:12:26;21.45;;;4.18;;
60233;SDS011;49514;43.538;-5.708;2023-05-17T06:14:53;20.65;;;4.32;;
60233;SDS011;49514;43.538;-5.708;2023-05-17T06:17:19;26.63;;;4.15;;
60233;SDS011;49514;43.538;-5.708;2023-05-17T06:19:46;16.70;;;4.38;;
60233;SDS011;49514;43.538;-5.708;2023-05-17T06:22:14;19.63;;;4.00;;
60233;SDS011;49514;43.538;-5.708;2023-05-17T06:24:41;14.75;;;4.35;;
60233;SDS011;49514;43.538;-5.708;2023-05-17T06:27:07;17.98;;;4.38;;
60233;SDS011;49514;43.538;-5.708;2023-05-17T06:29:34;19.60;;;5.13;;
60233;SDS011;49514;43.538;-5.708;2023-05-17T06:32:01;15.40;;;4.95;;
60233;SDS011;49514;43.538;-5.708;2023-05-17T06:34:27;17.45;;;5.15;;
60233;SDS011;49514;43.538;-5.708;2023-05-17T06:36:54;34.83;;;5.47;;
60233;SDS011;49514;43.538;-5.708;2023-05-17T06:39:20;17.27;;;4.10;;
60233;SDS011;49514;43.538;-5.708;2023-05-17T06:41:47;13.98;;;3.47;;
60233;SDS011;49514;43.538;-5.708;2023-05-17T06:44:16;17.80;;;3.63;;
60233;SDS011;49514;43.538;-5.708;2023-05-17T06:46:43;16.75;;;4.07;;
60233;SDS011;49514;43.538;-5.708;2023-05-17T06:49:09;9.38;;;2.90;;
60233;SDS011;49514;43.538;-5.708;2023-05-17T06:51:36;12.57;;;2.33;;
60233;SDS011;49514;43.538;-5.708;2023-05-17T06:54:03;10.98;;;2.00;;
60233;SDS011;49514;43.538;-5.708;2023-05-17T06:56:29;6.22;;;1.50;;
60233;SDS011;49514;43.538;-5.708;2023-05-17T06:58:56;8.57;;;2.00;;
60233;SDS011;49514;43.538;-5.708;2023-05-17T07:01:24;7.47;;;1.83;;
60233;SDS011;49514;43.538;-5.708;2023-05-17T07:03:51;9.30;;;1.70;;
60233;SDS011;49514;43.538;-5.708;2023-05-17T07:06:17;14.07;;;1.98;;
60233;SDS011;49514;43.538;-5.708;2023-05-17T07:08:44;8.73;;;1.75;;
60233;SDS011;49514;43.538;-5.708;2023-05-17T07:11:11;7.10;;;1.67;;
60233;SDS011;49514;43.538;-5.708;2023-05-17T07:13:37;6.38;;;2.10;;
60233;SDS011;49514;43.538;-5.708;2023-05-17T07:16:06;7.53;;;1.60;;
60233;SDS011;49514;43.538;-5.708;2023-05-17T07:18:33;5.68;;;1.50;;
60233;SDS011;49514;43.538;-5.708;2023-05-17T07:21:00;7.88;;;1.60;;
60233;SDS011;49514;43.538;-5.708;2023-05-17T07:23:26;8.48;;;1.90;;
60233;SDS011;49514;43.538;-5.708;2023-05-17T07:25:53;5.13;;;1.63;;
60233;SDS011;49514;43.538;-5.708;2023-05-17T07:28:20;7.82;;;1.70;;
60233;SDS011;49514;43.538;-5.708;2023-05-17T07:30:46;7.05;;;1.60;;
60233;SDS011;49514;43.538;-5.708;2023-05-17T07:33:13;11.65;;;2.05;;
60233;SDS011;49514;43.538;-5.708;2023-05-17T07:35:39;6.50;;;1.40;;
60233;SDS011;49514;43.538;-5.708;2023-05-17T07:38:06;7.78;;;1.55;;
60233;SDS011;49514;43.538;-5.708;2023-05-17T07:40:32;8.85;;;1.90;;
60233;SDS011;49514;43.538;-5.708;2023-05-17T07:42:59;8.03;;;2.00;;
60233;SDS011;49514;43.538;-5.708;2023-05-17T07:45:26;10.80;;;2.08;;
60233;SDS011;49514;43.538;-5.708;2023-05-17T07:47:53;9.77;;;1.80;;
60233;SDS011;49514;43.538;-5.708;2023-05-17T07:50:20;11.35;;;2.20;;
60233;SDS011;49514;43.538;-5.708;2023-05-17T07:52:47;8.43;;;1.95;;
60233;SDS011;49514;43.538;-5.708;2023-05-17T07:55:13;8.95;;;2.60;;
60233;SDS011;49514;43.538;-5.708;2023-05-17T07:57:40;8.23;;;2.08;;
60233;SDS011;49514;43.538;-5.708;2023-05-17T08:00:08;8.73;;;2.50;;
60233;SDS011;49514;43.538;-5.708;2023-05-17T08:02:40;10.93;;;2.38;;
60233;SDS011;49514;43.538;-5.708;2023-05-17T08:05:06;9.30;;;2.10;;
60233;SDS011;49514;43.538;-5.708;2023-05-17T08:07:33;6.90;;;2.20;;
60233;SDS011;49514;43.538;-5.708;2023-05-17T08:10:00;9.80;;;2.20;;
60233;SDS011;49514;43.538;-5.708;2023-05-17T08:12:28;9.07;;;2.30;;
60233;SDS011;49514;43.538;-5.708;2023-05-17T08:14:54;11.63;;;2.10;;
60233;SDS011;49514;43.538;-5.708;2023-05-17T08:17:21;12.10;;;2.40;;
60233;SDS011;49514;43.538;-5.708;2023-05-17T08:19:48;10.68;;;1.73;;
60233;SDS011;49514;43.538;-5.708;2023-05-17T08:22:14;9.77;;;1.65;;
60233;SDS011;49514;43.538;-5.708;2023-05-17T08:24:41;9.57;;;1.80;;
60233;SDS011;49514;43.538;-5.708;2023-05-17T08:27:10;10.98;;;1.95;;
60233;SDS011;49514;43.538;-5.708;2023-05-17T08:29:36;9.98;;;2.00;;
60233;SDS011;49514;43.538;-5.708;2023-05-17T08:32:03;5.80;;;1.50;;
60233;SDS011;49514;43.538;-5.708;2023-05-17T08:34:30;10.10;;;2.03;;
60233;SDS011;49514;43.538;-5.708;2023-05-17T08:36:57;8.45;;;1.90;;
60233;SDS011;49514;43.538;-5.708;2023-05-17T08:39:23;8.18;;;1.55;;
60233;SDS011;49514;43.538;-5.708;2023-05-17T12:40:44;7.10;;;2.00;;
60233;SDS011;49514;43.538;-5.708;2023-05-17T12:43:11;5.75;;;1.45;;
60233;SDS011;49514;43.538;-5.708;2023-05-17T12:45:42;8.38;;;1.50;;
60233;SDS011;49514;43.538;-5.708;2023-05-17T12:48:09;9.20;;;1.55;;
60233;SDS011;49514;43.538;-5.708;2023-05-17T12:50:35;10.32;;;1.70;;
60233;SDS011;49514;43.538;-5.708;2023-05-17T12:53:06;7.35;;;1.77;;
60233;SDS011;49514;43.538;-5.708;2023-05-17T12:55:37;6.03;;;1.40;;
60233;SDS011;49514;43.538;-5.708;2023-05-17T12:58:03;6.43;;;1.30;;
60233;SDS011;49514;43.538;-5.708;2023-05-17T13:00:30;4.88;;;1.30;;
60233;SDS011;49514;43.538;-5.708;2023-05-17T13:02:57;6.70;;;1.70;;
60233;SDS011;49514;43.538;-5.708;2023-05-17T13:05:25;6.77;;;1.60;;
60233;SDS011;49514;43.538;-5.708;2023-05-17T13:07:53;6.57;;;1.60;;
60233;SDS011;49514;43.538;-5.708;2023-05-17T13:10:25;7.20;;;1.40;;
60233;SDS011;49514;43.538;-5.708;2023-05-17T13:20:37;4.75;;;1.27;;
60233;SDS011;49514;43.538;-5.708;2023-05-17T13:25:31;4.68;;;1.25;;
60233;SDS011;49514;43.538;-5.708;2023-05-17T13:32:51;11.27;;;1.75;;
60233;SDS011;49514;43.538;-5.708;2023-05-17T13:35:19;4.68;;;0.98;;
60233;SDS011;49514;43.538;-5.708;2023-05-17T13:37:46;6.32;;;1.23;;
60233;SDS011;49514;43.538;-5.708;2023-05-17T13:40:12;7.38;;;1.27;;
60233;SDS011;49514;43.538;-5.708;2023-05-17T13:42:39;6.90;;;1.20;;
60233;SDS011;49514;43.538;-5.708;2023-05-17T13:45:07;7.20;;;1.23;;
60233;SDS011;49514;43.538;-5.708;2023-05-17T13:47:34;5.78;;;1.23;;
60233;SDS011;49514;43.538;-5.708;2023-05-17T13:50:01;6.28;;;1.30;;
60233;SDS011;49514;43.538;-5.708;2023-05-17T13:52:30;4.10;;;1.65;;
60233;SDS011;49514;43.538;-5.708;2023-05-17T13:54:56;4.15;;;1.17;;
60233;SDS011;49514;43.538;-5.708;2023-05-17T13:57:23;3.22;;;1.10;;
60233;SDS011;49514;43.538;-5.708;2023-05-17T13:59:50;5.80;;;1.20;;
60233;SDS011;49514;43.538;-5.708;2023-05-17T14:02:16;6.53;;;1.23;;
60233;SDS011;49514;43.538;-5.708;2023-05-17T14:04:43;4.15;;;1.15;;
60233;SDS011;49514;43.538;-5.708;2023-05-17T14:09:37;9.75;;;1.67;;
60233;SDS011;49514;43.538;-5.708;2023-05-17T14:12:04;9.02;;;1.35;;
60233;SDS011;49514;43.538;-5.708;2023-05-17T14:14:32;4.97;;;1.20;;
60233;SDS011;49514;43.538;-5.708;2023-05-17T14:16:59;12.02;;;1.70;;
60233;SDS011;49514;43.538;-5.708;2023-05-17T14:19:26;6.78;;;1.55;;
60233;SDS011;49514;43.538;-5.708;2023-05-17T14:21:53;8.95;;;1.33;;
60233;SDS011;49514;43.538;-5.708;2023-05-17T14:24:20;5.53;;;1.40;;
60233;SDS011;49514;43.538;-5.708;2023-05-17T14:26:46;7.78;;;1.65;;
60233;SDS011;49514;43.538;-5.708;2023-05-17T14:29:13;6.82;;;1.50;;
60233;SDS011;49514;43.538;-5.708;2023-05-17T14:31:40;5.72;;;1.55;;
60233;SDS011;49514;43.538;-5.708;2023-05-17T14:34:07;12.48;;;1.70;;
60233;SDS011;49514;43.538;-5.708;2023-05-17T14:36:33;9.48;;;1.65;;
60233;SDS011;49514;43.538;-5.708;2023-05-17T14:39:01;5.15;;;1.38;;
60233;SDS011;49514;43.538;-5.708;2023-05-17T14:41:28;10.02;;;1.50;;
60233;SDS011;49514;43.538;-5.708;2023-05-17T14:43:55;8.80;;;1.70;;
60233;SDS011;49514;43.538;-5.708;2023-05-17T14:46:22;8.57;;;1.83;;
60233;SDS011;49514;43.538;-5.708;2023-05-17T14:48:49;11.15;;;1.60;;
60233;SDS011;49514;43.538;-5.708;2023-05-17T14:51:17;8.02;;;1.52;;
60233;SDS011;49514;43.538;-5.708;2023-05-17T14:53:44;9.98;;;1.85;;
60233;SDS011;49514;43.538;-5.708;2023-05-17T14:56:11;8.60;;;1.75;;
60233;SDS011;49514;43.538;-5.708;2023-05-17T14:58:40;9.88;;;1.50;;
60233;SDS011;49514;43.538;-5.708;2023-05-17T15:01:07;7.72;;;1.40;;
60233;SDS011;49514;43.538;-5.708;2023-05-17T15:03:34;12.13;;;1.52;;
60233;SDS011;49514;43.538;-5.708;2023-05-17T15:06:00;11.15;;;1.70;;
60233;SDS011;49514;43.538;-5.708;2023-05-17T15:08:27;13.52;;;2.33;;
60233;SDS011;49514;43.538;-5.708;2023-05-17T15:32:56;7.90;;;1.55;;
60233;SDS011;49514;43.538;-5.708;2023-05-17T15:35:24;6.20;;;1.73;;
60233;SDS011;49514;43.538;-5.708;2023-05-17T15:37:51;5.35;;;1.80;;
60233;SDS011;49514;43.538;-5.708;2023-05-17T15:40:18;7.97;;;1.85;;
60233;SDS011;49514;43.538;-5.708;2023-05-17T15:42:49;8.98;;;2.00;;
60233;SDS011;49514;43.538;-5.708;2023-05-17T15:45:19;7.93;;;1.87;;
60233;SDS011;49514;43.538;-5.708;2023-05-17T15:47:46;6.67;;;1.90;;
60233;SDS011;49514;43.538;-5.708;2023-05-17T15:50:14;7.22;;;1.83;;
60233;SDS011;49514;43.538;-5.708;2023-05-17T15:52:41;6.22;;;1.70;;
60233;SDS011;49514;43.538;-5.708;2023-05-17T15:55:08;6.80;;;1.92;;
60233;SDS011;49514;43.538;-5.708;2023-05-17T15:57:36;7.85;;;1.77;;
60233;SDS011;49514;43.538;-5.708;2023-05-17T16:00:03;6.82;;;1.83;;
60233;SDS011;49514;43.538;-5.708;2023-05-17T16:02:31;9.88;;;1.83;;
60233;SDS011;49514;43.538;-5.708;2023-05-17T16:04:57;9.27;;;2.15;;
60233;SDS011;49514;43.538;-5.708;2023-05-17T16:07:24;6.53;;;1.90;;
60233;SDS011;49514;43.538;-5.708;2023-05-17T16:09:51;7.55;;;2.00;;
60233;SDS011;49514;43.538;-5.708;2023-05-17T16:12:18;10.15;;;2.15;;
60233;SDS011;49514;43.538;-5.708;2023-05-17T16:14:45;8.45;;;2.10;;
60233;SDS011;49514;43.538;-5.708;2023-05-17T16:17:11;8.57;;;2.10;;
60233;SDS011;49514;43.538;-5.708;2023-05-17T16:19:38;9.00;;;2.33;;
60233;SDS011;49514;43.538;-5.708;2023-05-17T16:22:05;10.50;;;2.33;;
60233;SDS011;49514;43.538;-5.708;2023-05-17T16:24:31;11.73;;;2.45;;
60233;SDS011;49514;43.538;-5.708;2023-05-17T16:26:58;8.43;;;2.35;;
60233;SDS011;49514;43.538;-5.708;2023-05-17T16:29:25;10.85;;;2.55;;
60233;SDS011;49514;43.538;-5.708;2023-05-17T16:31:52;11.00;;;2.55;;
60233;SDS011;49514;43.538;-5.708;2023-05-17T16:34:19;13.18;;;2.40;;
60233;SDS011;49514;43.538;-5.708;2023-05-17T16:36:45;6.78;;;2.10;;
60233;SDS011;49514;43.538;-5.708;2023-05-17T16:39:13;11.57;;;2.47;;
60233;SDS011;49514;43.538;-5.708;2023-05-17T16:41:39;11.00;;;2.03;;
60233;SDS011;49514;43.538;-5.708;2023-05-17T16:44:06;7.57;;;2.17;;
60233;SDS011;49514;43.538;-5.708;2023-05-17T16:46:33;9.10;;;2.10;;
60233;SDS011;49514;43.538;-5.708;2023-05-17T16:49:01;7.22;;;1.90;;
60233;SDS011;49514;43.538;-5.708;2023-05-17T16:51:28;10.25;;;2.20;;
60233;SDS011;49514;43.538;-5.708;2023-05-17T16:53:56;11.40;;;2.28;;
60233;SDS011;49514;43.538;-5.708;2023-05-17T16:56:22;6.60;;;1.85;;
60233;SDS011;49514;43.538;-5.708;2023-05-17T16:58:49;13.63;;;2.53;;
60233;SDS011;49514;43.538;-5.708;2023-05-17T17:01:17;7.53;;;2.28;;
60233;SDS011;49514;43.538;-5.708;2023-05-17T17:03:43;9.15;;;2.20;;
60233;SDS011;49514;43.538;-5.708;2023-05-17T17:06:10;13.63;;;2.25;;
60233;SDS011;49514;43.538;-5.708;2023-05-17T17:08:37;7.65;;;2.05;;
60233;SDS011;49514;43.538;-5.708;2023-05-17T17:11:03;8.23;;;2.03;;
60233;SDS011;49514;43.538;-5.708;2023-05-17T17:13:30;9.32;;;2.20;;
60233;SDS011;49514;43.538;-5.708;2023-05-17T17:15:57;12.25;;;2.50;;
60233;SDS011;49514;43.538;-5.708;2023-05-17T17:18:24;6.60;;;1.98;;
60233;SDS011;49514;43.538;-5.708;2023-05-17T17:20:51;7.78;;;2.40;;
60233;SDS011;49514;43.538;-5.708;2023-05-17T17:23:17;7.38;;;2.00;;
60233;SDS011;49514;43.538;-5.708;2023-05-17T17:25:44;10.05;;;2.00;;
60233;SDS011;49514;43.538;-5.708;2023-05-17T17:28:11;12.63;;;2.25;;
60233;SDS011;49514;43.538;-5.708;2023-05-17T17:30:38;9.73;;;2.38;;
60233;SDS011;49514;43.538;-5.708;2023-05-17T17:33:05;6.70;;;2.05;;
60233;SDS011;49514;43.538;-5.708;2023-05-17T17:35:31;6.38;;;2.00;;
60233;SDS011;49514;43.538;-5.708;2023-05-17T17:37:58;7.35;;;2.10;;
60233;SDS011;49514;43.538;-5.708;2023-05-17T17:40:27;4.60;;;1.67;;
60233;SDS011;49514;43.538;-5.708;2023-05-17T17:42:53;6.70;;;2.10;;
60233;SDS011;49514;43.538;-5.708;2023-05-17T17:45:20;6.63;;;2.38;;
60233;SDS011;49514;43.538;-5.708;2023-05-17T17:47:47;7.65;;;2.22;;
60233;SDS011;49514;43.538;-5.708;2023-05-17T17:50:14;10.80;;;2.15;;
60233;SDS011;49514;43.538;-5.708;2023-05-17T18:05:17;4.97;;;1.70;;
60233;SDS011;49514;43.538;-5.708;2023-05-17T18:07:45;8.90;;;2.00;;
60233;SDS011;49514;43.538;-5.708;2023-05-17T18:10:12;6.97;;;1.90;;
60233;SDS011;49514;43.538;-5.708;2023-05-17T18:12:39;6.32;;;1.85;;
60233;SDS011;49514;43.538;-5.708;2023-05-17T18:15:08;9.50;;;2.03;;
60233;SDS011;49514;43.538;-5.708;2023-05-17T18:17:37;6.65;;;1.98;;
60233;SDS011;49514;43.538;-5.708;2023-05-17T18:20:05;8.40;;;2.17;;
60233;SDS011;49514;43.538;-5.708;2023-05-17T18:22:32;5.68;;;1.95;;
60233;SDS011;49514;43.538;-5.708;2023-05-17T18:24:59;6.80;;;1.75;;
60233;SDS011;49514;43.538;-5.708;2023-05-17T18:27:27;7.43;;;2.15;;
60233;SDS011;49514;43.538;-5.708;2023-05-17T18:29:55;11.75;;;2.05;;
60233;SDS011;49514;43.538;-5.708;2023-05-17T18:32:22;13.65;;;2.22;;
60233;SDS011;49514;43.538;-5.708;2023-05-17T18:34:50;9.80;;;1.95;;
60233;SDS011;49514;43.538;-5.708;2023-05-17T18:37:17;4.53;;;1.77;;
60233;SDS011;49514;43.538;-5.708;2023-05-17T18:39:44;5.07;;;1.63;;
60233;SDS011;49514;43.538;-5.708;2023-05-17T18:42:11;5.55;;;1.63;;
60233;SDS011;49514;43.538;-5.708;2023-05-17T18:44:38;3.90;;;1.80;;
60233;SDS011;49514;43.538;-5.708;2023-05-17T18:49:32;8.15;;;2.08;;
60233;SDS011;49514;43.538;-5.708;2023-05-17T18:54:27;8.50;;;2.13;;
60233;SDS011;49514;43.538;-5.708;2023-05-17T18:56:54;6.97;;;1.90;;
60233;SDS011;49514;43.538;-5.708;2023-05-17T19:04:13;9.02;;;1.67;;
60233;SDS011;49514;43.538;-5.708;2023-05-17T19:09:07;7.85;;;2.10;;
60233;SDS011;49514;43.538;-5.708;2023-05-17T19:11:34;6.35;;;1.67;;
60233;SDS011;49514;43.538;-5.708;2023-05-17T19:14:00;7.20;;;2.08;;
60233;SDS011;49514;43.538;-5.708;2023-05-17T19:16:28;4.22;;;2.00;;
60233;SDS011;49514;43.538;-5.708;2023-05-17T19:18:56;7.60;;;1.80;;
60233;SDS011;49514;43.538;-5.708;2023-05-17T19:21:23;5.65;;;1.60;;
60233;SDS011;49514;43.538;-5.708;2023-05-17T19:23:49;10.32;;;2.10;;
60233;SDS011;49514;43.538;-5.708;2023-05-17T19:26:16;9.70;;;2.10;;
60233;SDS011;49514;43.538;-5.708;2023-05-17T19:28:43;4.43;;;1.80;;
60233;SDS011;49514;43.538;-5.708;2023-05-17T19:31:10;8.18;;;1.90;;
60233;SDS011;49514;43.538;-5.708;2023-05-17T19:33:37;7.80;;;1.88;;
60233;SDS011;49514;43.538;-5.708;2023-05-17T19:36:03;4.25;;;1.73;;
60233;SDS011;49514;43.538;-5.708;2023-05-17T19:38:30;5.10;;;1.70;;
60233;SDS011;49514;43.538;-5.708;2023-05-17T19:40:58;6.50;;;2.83;;
60233;SDS011;49514;43.538;-5.708;2023-05-17T19:43:26;7.57;;;2.00;;
60233;SDS011;49514;43.538;-5.708;2023-05-17T19:45:54;6.18;;;2.00;;
60233;SDS011;49514;43.538;-5.708;2023-05-17T19:48:23;6.00;;;2.20;;
60233;SDS011;49514;43.538;-5.708;2023-05-17T19:50:51;11.35;;;1.90;;
60233;SDS011;49514;43.538;-5.708;2023-05-17T19:53:19;5.20;;;1.52;;
60233;SDS011;49514;43.538;-5.708;2023-05-17T19:55:47;7.60;;;1.80;;
60233;SDS011;49514;43.538;-5.708;2023-05-17T19:58:15;5.10;;;1.83;;
60233;SDS011;49514;43.538;-5.708;2023-05-17T20:00:42;7.95;;;2.40;;
60233;SDS011;49514;43.538;-5.708;2023-05-17T20:03:09;7.35;;;1.95;;
60233;SDS011;49514;43.538;-5.708;2023-05-17T20:05:36;10.52;;;2.22;;
60233;SDS011;49514;43.538;-5.708;2023-05-17T20:08:03;10.35;;;1.85;;
60233;SDS011;49514;43.538;-5.708;2023-05-17T20:10:33;8.95;;;2.08;;
60233;SDS011;49514;43.538;-5.708;2023-05-17T20:13:01;7.30;;;1.90;;
60233;SDS011;49514;43.538;-5.708;2023-05-17T20:15:28;4.53;;;1.80;;
60233;SDS011;49514;43.538;-5.708;2023-05-17T20:17:55;8.25;;;2.67;;
60233;SDS011;49514;43.538;-5.708;2023-05-17T20:20:23;5.78;;;1.83;;
60233;SDS011;49514;43.538;-5.708;2023-05-17T20:22:51;8.55;;;1.88;;
60233;SDS011;49514;43.538;-5.708;2023-05-17T20:25:17;4.97;;;1.80;;
60233;SDS011;49514;43.538;-5.708;2023-05-17T20:27:44;5.80;;;2.08;;
60233;SDS011;49514;43.538;-5.708;2023-05-17T20:30:12;6.22;;;1.67;;
60233;SDS011;49514;43.538;-5.708;2023-05-17T20:32:39;7.95;;;1.80;;
60233;SDS011;49514;43.538;-5.708;2023-05-17T20:35:07;6.22;;;1.60;;
60233;SDS011;49514;43.538;-5.708;2023-05-17T20:37:34;6.88;;;2.33;;
60233;SDS011;49514;43.538;-5.708;2023-05-17T20:40:01;9.57;;;2.20;;
60233;SDS011;49514;43.538;-5.708;2023-05-17T20:42:29;6.50;;;1.63;;
60233;SDS011;49514;43.538;-5.708;2023-05-17T20:44:57;8.75;;;1.88;;
60233;SDS011;49514;43.538;-5.708;2023-05-17T20:47:24;8.00;;;1.65;;
60233;SDS011;49514;43.538;-5.708;2023-05-17T20:49:51;7.97;;;2.05;;
60233;SDS011;49514;43.538;-5.708;2023-05-17T20:52:18;8.70;;;1.83;;
60233;SDS011;49514;43.538;-5.708;2023-05-17T20:54:45;5.00;;;1.88;;
60233;SDS011;49514;43.538;-5.708;2023-05-17T20:57:11;9.10;;;2.13;;
60233;SDS011;49514;43.538;-5.708;2023-05-17T20:59:38;5.05;;;1.70;;
60233;SDS011;49514;43.538;-5.708;2023-05-17T21:02:05;9.85;;;2.10;;
60233;SDS011;49514;43.538;-5.708;2023-05-17T21:04:33;7.25;;;2.00;;
60233;SDS011;49514;43.538;-5.708;2023-05-17T21:07:02;4.43;;;1.35;;
60233;SDS011;49514;43.538;-5.708;2023-05-17T21:09:29;3.88;;;1.30;;
60233;SDS011;49514;43.538;-5.708;2023-05-17T21:11:57;5.50;;;1.60;;
60233;SDS011;49514;43.538;-5.708;2023-05-17T21:14:24;6.32;;;1.58;;
60233;SDS011;49514;43.538;-5.708;2023-05-17T21:16:53;4.10;;;1.45;;
60233;SDS011;49514;43.538;-5.708;2023-05-17T21:19:21;7.20;;;1.67;;